EmailTwitter


Observations de surface / France / LFMP (07747)

Régions: Québec | Canada | États-Unis | Europe | France | UK | Ailleurs
Station
Affichage
Infos & localisation pour LFMP (07747) | Aide pour décoder les METARs

Observations prises le 2017-12-12 à 15H30 UTC à PERPIGNAN/RIVESA, FR (LFMP)

Température: 9.0 Celsius

Point de rosée: 1.0 Celsius

Humidité relative: 57%

Facteur vent: 6.

Vents: Nord-nord-ouest à 20 km/h ou 11 noeuds.

Pression au niveau moyen de la mer: 101.70 kilopascals.

Observation METAR:

LFMP 121530Z AUTO 34011KT 300V020 CAVOK 09/01 Q1017=